sensor_id;sensor_type;location;lat;lon;timestamp;temperature;humidity
2202;DHT22;1107;48.654;9.250;2023-02-24T00:01:32;9.30;2.20
2202;DHT22;1107;48.654;9.250;2023-02-24T00:04:05;9.20;38.20
2202;DHT22;1107;48.654;9.250;2023-02-24T00:06:35;9.10;37.90
2202;DHT22;1107;48.654;9.250;2023-02-24T00:09:03;9.00;58.90
2202;DHT22;1107;48.654;9.250;2023-02-24T00:11:33;8.90;57.20
2202;DHT22;1107;48.654;9.250;2023-02-24T00:14:00;8.80;99.90
2202;DHT22;1107;48.654;9.250;2023-02-24T00:16:30;8.70;99.90
2202;DHT22;1107;48.654;9.250;2023-02-24T00:18:58;8.60;99.90
2202;DHT22;1107;48.654;9.250;2023-02-24T00:21:27;8.60;99.90
2202;DHT22;1107;48.654;9.250;2023-02-24T00:23:55;8.60;99.90
2202;DHT22;1107;48.654;9.250;2023-02-24T00:26:24;8.60;99.90
2202;DHT22;1107;48.654;9.250;2023-02-24T00:28:51;8.60;99.90
2202;DHT22;1107;48.654;9.250;2023-02-24T00:31:18;8.60;99.90
2202;DHT22;1107;48.654;9.250;2023-02-24T00:33:48;8.60;99.90
2202;DHT22;1107;48.654;9.250;2023-02-24T00:36:17;8.70;99.90
2202;DHT22;1107;48.654;9.250;2023-02-24T00:38:51;8.70;99.90
2202;DHT22;1107;48.654;9.250;2023-02-24T00:41:21;8.70;99.90
2202;DHT22;1107;48.654;9.250;2023-02-24T00:43:49;8.80;99.90
2202;DHT22;1107;48.654;9.250;2023-02-24T00:46:18;8.80;99.90
2202;DHT22;1107;48.654;9.250;2023-02-24T00:48:46;8.80;99.90
2202;DHT22;1107;48.654;9.250;2023-02-24T00:51:15;8.80;99.90
2202;DHT22;1107;48.654;9.250;2023-02-24T00:53:50;8.80;99.90
2202;DHT22;1107;48.654;9.250;2023-02-24T00:56:20;8.90;99.90
2202;DHT22;1107;48.654;9.250;2023-02-24T00:58:47;8.90;99.90
2202;DHT22;1107;48.654;9.250;2023-02-24T01:01:16;8.80;99.90
2202;DHT22;1107;48.654;9.250;2023-02-24T01:03:44;8.90;99.90
2202;DHT22;1107;48.654;9.250;2023-02-24T01:06:13;8.90;99.90
2202;DHT22;1107;48.654;9.250;2023-02-24T01:08:40;9.00;99.90
2202;DHT22;1107;48.654;9.250;2023-02-24T01:11:13;9.10;99.90
2202;DHT22;1107;48.654;9.250;2023-02-24T01:13:58;9.10;99.90
2202;DHT22;1107;48.654;9.250;2023-02-24T01:16:25;9.20;95.00
2202;DHT22;1107;48.654;9.250;2023-02-24T01:18:53;9.10;93.40
2202;DHT22;1107;48.654;9.250;2023-02-24T01:21:20;9.10;99.90
2202;DHT22;1107;48.654;9.250;2023-02-24T01:23:49;9.10;96.00
2202;DHT22;1107;48.654;9.250;2023-02-24T01:26:18;9.10;99.90
2202;DHT22;1107;48.654;9.250;2023-02-24T01:28:46;9.10;98.60
2202;DHT22;1107;48.654;9.250;2023-02-24T01:31:14;9.10;99.90
2202;DHT22;1107;48.654;9.250;2023-02-24T01:33:42;9.10;99.90
2202;DHT22;1107;48.654;9.250;2023-02-24T01:36:12;9.10;99.90
2202;DHT22;1107;48.654;9.250;2023-02-24T01:38:39;9.10;99.90
2202;DHT22;1107;48.654;9.250;2023-02-24T01:41:08;9.10;99.90
2202;DHT22;1107;48.654;9.250;2023-02-24T01:43:58;9.10;99.90
2202;DHT22;1107;48.654;9.250;2023-02-24T01:46:27;9.20;99.10
2202;DHT22;1107;48.654;9.250;2023-02-24T01:48:57;9.20;99.90
2202;DHT22;1107;48.654;9.250;2023-02-24T01:51:29;9.10;99.90
2202;DHT22;1107;48.654;9.250;2023-02-24T01:53:57;9.10;99.90
2202;DHT22;1107;48.654;9.250;2023-02-24T01:56:25;9.20;99.90
2202;DHT22;1107;48.654;9.250;2023-02-24T01:58:54;9.20;99.90
2202;DHT22;1107;48.654;9.250;2023-02-24T02:01:23;9.30;99.90
2202;DHT22;1107;48.654;9.250;2023-02-24T02:03:51;9.30;98.60
2202;DHT22;1107;48.654;9.250;2023-02-24T02:06:23;9.30;93.40
2202;DHT22;1107;48.654;9.250;2023-02-24T02:08:51;9.30;99.90
2202;DHT22;1107;48.654;9.250;2023-02-24T02:11:18;9.30;99.90
2202;DHT22;1107;48.654;9.250;2023-02-24T02:13:48;9.30;99.90
2202;DHT22;1107;48.654;9.250;2023-02-24T02:16:26;9.30;98.90
2202;DHT22;1107;48.654;9.250;2023-02-24T02:19:04;9.30;73.10
2202;DHT22;1107;48.654;9.250;2023-02-24T02:22:06;9.40;67.00
2202;DHT22;1107;48.654;9.250;2023-02-24T02:24:50;9.40;70.10
2202;DHT22;1107;48.654;9.250;2023-02-24T02:30:43;9.40;78.60
2202;DHT22;1107;48.654;9.250;2023-02-24T02:33:50;9.40;84.10
2202;DHT22;1107;48.654;9.250;2023-02-24T02:36:30;9.40;83.70
2202;DHT22;1107;48.654;9.250;2023-02-24T02:39:03;9.40;75.20
2202;DHT22;1107;48.654;9.250;2023-02-24T02:41:37;9.40;82.60
2202;DHT22;1107;48.654;9.250;2023-02-24T02:44:12;9.40;79.40
2202;DHT22;1107;48.654;9.250;2023-02-24T02:46:42;9.40;90.10
2202;DHT22;1107;48.654;9.250;2023-02-24T02:49:16;9.30;91.20
2202;DHT22;1107;48.654;9.250;2023-02-24T02:51:48;9.30;91.60
2202;DHT22;1107;48.654;9.250;2023-02-24T02:54:21;9.30;99.90
2202;DHT22;1107;48.654;9.250;2023-02-24T02:56:56;9.30;85.10
2202;DHT22;1107;48.654;9.250;2023-02-24T02:59:28;9.30;87.80
2202;DHT22;1107;48.654;9.250;2023-02-24T03:01:57;9.30;95.80
2202;DHT22;1107;48.654;9.250;2023-02-24T03:04:38;9.30;99.90
2202;DHT22;1107;48.654;9.250;2023-02-24T03:07:07;9.30;95.40
2202;DHT22;1107;48.654;9.250;2023-02-24T03:09:39;9.40;97.00
2202;DHT22;1107;48.654;9.250;2023-02-24T03:12:11;9.30;8.20
2202;DHT22;1107;48.654;9.250;2023-02-24T03:14:43;9.20;5.40
2202;DHT22;1107;48.654;9.250;2023-02-24T03:17:20;9.10;5.60
2202;DHT22;1107;48.654;9.250;2023-02-24T03:19:52;9.10;6.30
2202;DHT22;1107;48.654;9.250;2023-02-24T03:22:28;9.00;3.70
2202;DHT22;1107;48.654;9.250;2023-02-24T03:24:59;9.00;1.00
2202;DHT22;1107;48.654;9.250;2023-02-24T03:27:28;8.90;1.00
2202;DHT22;1107;48.654;9.250;2023-02-24T03:29:58;8.80;1.00
2202;DHT22;1107;48.654;9.250;2023-02-24T03:32:36;8.70;1.00
2202;DHT22;1107;48.654;9.250;2023-02-24T03:35:12;8.70;18.30
2202;DHT22;1107;48.654;9.250;2023-02-24T03:37:42;8.60;8.40
2202;DHT22;1107;48.654;9.250;2023-02-24T03:40:11;8.60;28.60
2202;DHT22;1107;48.654;9.250;2023-02-24T03:42:41;8.50;44.60
2202;DHT22;1107;48.654;9.250;2023-02-24T03:45:09;8.50;47.70
2202;DHT22;1107;48.654;9.250;2023-02-24T03:47:37;8.50;34.20
2202;DHT22;1107;48.654;9.250;2023-02-24T03:50:12;8.50;31.70
2202;DHT22;1107;48.654;9.250;2023-02-24T03:52:44;8.50;33.20
2202;DHT22;1107;48.654;9.250;2023-02-24T03:55:24;8.50;35.00
2202;DHT22;1107;48.654;9.250;2023-02-24T03:58:04;8.50;21.60
2202;DHT22;1107;48.654;9.250;2023-02-24T04:00:37;8.50;22.30
2202;DHT22;1107;48.654;9.250;2023-02-24T04:03:19;8.40;30.00
2202;DHT22;1107;48.654;9.250;2023-02-24T04:05:58;8.40;35.70
2202;DHT22;1107;48.654;9.250;2023-02-24T04:08:27;8.40;39.30
2202;DHT22;1107;48.654;9.250;2023-02-24T04:10:59;8.40;44.30
2202;DHT22;1107;48.654;9.250;2023-02-24T04:13:34;8.40;39.80
2202;DHT22;1107;48.654;9.250;2023-02-24T04:16:09;8.30;30.50
2202;DHT22;1107;48.654;9.250;2023-02-24T04:18:46;8.30;82.80
2202;DHT22;1107;48.654;9.250;2023-02-24T04:21:16;8.30;53.20
2202;DHT22;1107;48.654;9.250;2023-02-24T04:23:45;8.20;95.40
2202;DHT22;1107;48.654;9.250;2023-02-24T04:26:15;8.30;99.90
2202;DHT22;1107;48.654;9.250;2023-02-24T04:28:43;8.30;97.50
2202;DHT22;1107;48.654;9.250;2023-02-24T04:31:13;8.30;90.80
2202;DHT22;1107;48.654;9.250;2023-02-24T04:33:43;8.30;94.90
2202;DHT22;1107;48.654;9.250;2023-02-24T04:36:16;8.30;99.90
2202;DHT22;1107;48.654;9.250;2023-02-24T04:38:43;8.40;99.90
2202;DHT22;1107;48.654;9.250;2023-02-24T04:41:12;8.50;99.90
2202;DHT22;1107;48.654;9.250;2023-02-24T04:43:46;8.60;96.50
2202;DHT22;1107;48.654;9.250;2023-02-24T04:46:13;8.60;95.60
2202;DHT22;1107;48.654;9.250;2023-02-24T04:48:40;8.70;87.90
2202;DHT22;1107;48.654;9.250;2023-02-24T04:51:07;8.70;62.80
2202;DHT22;1107;48.654;9.250;2023-02-24T04:53:35;8.70;80.60
2202;DHT22;1107;48.654;9.250;2023-02-24T04:56:04;8.70;75.40
2202;DHT22;1107;48.654;9.250;2023-02-24T04:58:34;8.70;81.90
2202;DHT22;1107;48.654;9.250;2023-02-24T05:01:05;8.70;90.00
2202;DHT22;1107;48.654;9.250;2023-02-24T05:03:35;8.70;98.50
2202;DHT22;1107;48.654;9.250;2023-02-24T05:06:03;8.70;95.80
2202;DHT22;1107;48.654;9.250;2023-02-24T05:08:31;8.70;99.90
2202;DHT22;1107;48.654;9.250;2023-02-24T05:11:00;8.80;99.90
2202;DHT22;1107;48.654;9.250;2023-02-24T05:13:29;8.80;99.90
2202;DHT22;1107;48.654;9.250;2023-02-24T05:15:58;8.80;99.90
2202;DHT22;1107;48.654;9.250;2023-02-24T05:18:25;8.90;99.90
2202;DHT22;1107;48.654;9.250;2023-02-24T05:20:56;8.90;90.90
2202;DHT22;1107;48.654;9.250;2023-02-24T05:23:41;8.90;94.00
2202;DHT22;1107;48.654;9.250;2023-02-24T05:26:15;8.90;90.50
2202;DHT22;1107;48.654;9.250;2023-02-24T05:28:44;8.90;84.90
2202;DHT22;1107;48.654;9.250;2023-02-24T05:31:15;8.90;82.10
2202;DHT22;1107;48.654;9.250;2023-02-24T05:33:44;8.90;75.40
2202;DHT22;1107;48.654;9.250;2023-02-24T05:36:13;8.90;60.20
2202;DHT22;1107;48.654;9.250;2023-02-24T05:38:42;9.00;76.80
2202;DHT22;1107;48.654;9.250;2023-02-24T05:41:12;9.00;55.90
2202;DHT22;1107;48.654;9.250;2023-02-24T05:43:42;9.10;40.70
2202;DHT22;1107;48.654;9.250;2023-02-24T05:46:13;9.10;53.90
2202;DHT22;1107;48.654;9.250;2023-02-24T05:48:40;9.10;38.30
2202;DHT22;1107;48.654;9.250;2023-02-24T05:51:09;9.00;32.60
2202;DHT22;1107;48.654;9.250;2023-02-24T05:53:37;8.90;37.30
2202;DHT22;1107;48.654;9.250;2023-02-24T05:56:06;8.80;66.40
2202;DHT22;1107;48.654;9.250;2023-02-24T05:58:35;8.80;92.10
2202;DHT22;1107;48.654;9.250;2023-02-24T06:01:09;8.80;85.90
2202;DHT22;1107;48.654;9.250;2023-02-24T06:03:41;8.80;97.00
2202;DHT22;1107;48.654;9.250;2023-02-24T06:06:11;8.70;80.30
2202;DHT22;1107;48.654;9.250;2023-02-24T06:08:38;8.60;42.60
2202;DHT22;1107;48.654;9.250;2023-02-24T06:11:13;8.50;30.80
2202;DHT22;1107;48.654;9.250;2023-02-24T06:13:42;8.30;54.90
2202;DHT22;1107;48.654;9.250;2023-02-24T06:16:12;8.20;99.90
2202;DHT22;1107;48.654;9.250;2023-02-24T06:18:40;8.30;99.90
2202;DHT22;1107;48.654;9.250;2023-02-24T06:21:07;8.30;99.90
2202;DHT22;1107;48.654;9.250;2023-02-24T06:23:37;8.30;99.90
2202;DHT22;1107;48.654;9.250;2023-02-24T06:26:04;8.30;99.90
2202;DHT22;1107;48.654;9.250;2023-02-24T06:28:38;8.40;99.90
2202;DHT22;1107;48.654;9.250;2023-02-24T06:31:06;8.40;99.90
2202;DHT22;1107;48.654;9.250;2023-02-24T06:33:33;8.40;98.10
2202;DHT22;1107;48.654;9.250;2023-02-24T06:36:02;8.50;98.60
2202;DHT22;1107;48.654;9.250;2023-02-24T06:38:29;8.50;99.80
2202;DHT22;1107;48.654;9.250;2023-02-24T06:40:56;8.40;95.00
2202;DHT22;1107;48.654;9.250;2023-02-24T06:43:25;8.50;99.90
2202;DHT22;1107;48.654;9.250;2023-02-24T06:45:52;8.50;99.10
2202;DHT22;1107;48.654;9.250;2023-02-24T06:48:20;8.40;85.00
2202;DHT22;1107;48.654;9.250;2023-02-24T06:50:48;8.50;79.30
2202;DHT22;1107;48.654;9.250;2023-02-24T06:53:16;8.50;41.80
2202;DHT22;1107;48.654;9.250;2023-02-24T06:55:43;8.50;21.90
2202;DHT22;1107;48.654;9.250;2023-02-24T06:58:15;8.40;48.20
2202;DHT22;1107;48.654;9.250;2023-02-24T07:00:42;8.40;43.80
2202;DHT22;1107;48.654;9.250;2023-02-24T07:03:23;8.40;42.90
2202;DHT22;1107;48.654;9.250;2023-02-24T07:06:04;8.30;27.20
2202;DHT22;1107;48.654;9.250;2023-02-24T07:08:45;8.20;42.70
2202;DHT22;1107;48.654;9.250;2023-02-24T07:11:13;8.20;57.80
2202;DHT22;1107;48.654;9.250;2023-02-24T07:13:42;8.20;58.50
2202;DHT22;1107;48.654;9.250;2023-02-24T07:16:11;8.10;90.00
2202;DHT22;1107;48.654;9.250;2023-02-24T07:18:42;8.10;99.90
2202;DHT22;1107;48.654;9.250;2023-02-24T07:21:14;8.10;99.90
2202;DHT22;1107;48.654;9.250;2023-02-24T07:23:44;8.10;99.90
2202;DHT22;1107;48.654;9.250;2023-02-24T07:26:15;8.20;99.90
2202;DHT22;1107;48.654;9.250;2023-02-24T07:28:43;8.20;96.40
2202;DHT22;1107;48.654;9.250;2023-02-24T07:31:13;8.20;99.90
2202;DHT22;1107;48.654;9.250;2023-02-24T07:33:43;8.30;87.60
2202;DHT22;1107;48.654;9.250;2023-02-24T07:36:12;8.40;79.70
2202;DHT22;1107;48.654;9.250;2023-02-24T07:38:40;8.50;97.10
2202;DHT22;1107;48.654;9.250;2023-02-24T07:41:10;8.60;89.70
2202;DHT22;1107;48.654;9.250;2023-02-24T07:43:38;8.60;98.70
2202;DHT22;1107;48.654;9.250;2023-02-24T07:46:07;8.80;85.60
2202;DHT22;1107;48.654;9.250;2023-02-24T07:48:34;8.60;99.90
2202;DHT22;1107;48.654;9.250;2023-02-24T07:51:06;8.50;99.90
2202;DHT22;1107;48.654;9.250;2023-02-24T07:53:34;8.50;99.90
2202;DHT22;1107;48.654;9.250;2023-02-24T07:56:05;8.40;99.90
2202;DHT22;1107;48.654;9.250;2023-02-24T07:58:35;8.40;99.90
2202;DHT22;1107;48.654;9.250;2023-02-24T08:01:02;8.40;99.90
2202;DHT22;1107;48.654;9.250;2023-02-24T08:03:33;8.40;99.90
2202;DHT22;1107;48.654;9.250;2023-02-24T08:06:07;8.40;99.90
2202;DHT22;1107;48.654;9.250;2023-02-24T08:08:41;8.40;99.90
2202;DHT22;1107;48.654;9.250;2023-02-24T08:11:24;8.40;99.90
2202;DHT22;1107;48.654;9.250;2023-02-24T08:13:52;8.40;99.90
2202;DHT22;1107;48.654;9.250;2023-02-24T08:16:19;8.30;99.90
2202;DHT22;1107;48.654;9.250;2023-02-24T08:18:47;8.30;99.90
2202;DHT22;1107;48.654;9.250;2023-02-24T08:21:16;8.30;99.90
2202;DHT22;1107;48.654;9.250;2023-02-24T08:23:46;8.40;99.90
2202;DHT22;1107;48.654;9.250;2023-02-24T08:26:13;8.40;99.90
2202;DHT22;1107;48.654;9.250;2023-02-24T08:28:40;8.50;99.90
2202;DHT22;1107;48.654;9.250;2023-02-24T08:31:08;8.60;99.90
2202;DHT22;1107;48.654;9.250;2023-02-24T08:33:37;8.80;99.90
2202;DHT22;1107;48.654;9.250;2023-02-24T08:36:04;9.00;97.90
2202;DHT22;1107;48.654;9.250;2023-02-24T08:38:34;9.20;31.00
2202;DHT22;1107;48.654;9.250;2023-02-24T08:41:13;9.20;16.70
2202;DHT22;1107;48.654;9.250;2023-02-24T08:43:42;9.20;1.00
2202;DHT22;1107;48.654;9.250;2023-02-24T08:46:17;9.20;1.00
2202;DHT22;1107;48.654;9.250;2023-02-24T08:48:47;9.20;6.70
2202;DHT22;1107;48.654;9.250;2023-02-24T08:51:16;9.10;9.70
2202;DHT22;1107;48.654;9.250;2023-02-24T08:53:49;9.20;19.60
2202;DHT22;1107;48.654;9.250;2023-02-24T08:56:19;9.20;6.50
2202;DHT22;1107;48.654;9.250;2023-02-24T08:58:51;9.20;2.90
2202;DHT22;1107;48.654;9.250;2023-02-24T09:01:24;9.20;1.00
2202;DHT22;1107;48.654;9.250;2023-02-24T09:03:54;9.20;1.00
2202;DHT22;1107;48.654;9.250;2023-02-24T09:06:25;9.20;1.00
2202;DHT22;1107;48.654;9.250;2023-02-24T09:09:00;9.10;1.00
2202;DHT22;1107;48.654;9.250;2023-02-24T09:11:43;9.10;1.00
2202;DHT22;1107;48.654;9.250;2023-02-24T09:14:12;9.00;1.00
2202;DHT22;1107;48.654;9.250;2023-02-24T09:16:44;9.10;1.00
2202;DHT22;1107;48.654;9.250;2023-02-24T09:19:33;9.10;1.00
2202;DHT22;1107;48.654;9.250;2023-02-24T09:22:22;9.20;1.00
2202;DHT22;1107;48.654;9.250;2023-02-24T09:25:10;9.40;1.00
2202;DHT22;1107;48.654;9.250;2023-02-24T09:27:52;9.60;1.00
2202;DHT22;1107;48.654;9.250;2023-02-24T09:30:22;9.60;1.00
2202;DHT22;1107;48.654;9.250;2023-02-24T09:33:12;9.60;1.00
2202;DHT22;1107;48.654;9.250;2023-02-24T09:35:55;9.70;1.00
2202;DHT22;1107;48.654;9.250;2023-02-24T09:38:40;9.70;1.00
2202;DHT22;1107;48.654;9.250;2023-02-24T09:41:32;10.00;1.00
2202;DHT22;1107;48.654;9.250;2023-02-24T09:44:21;10.30;1.00
2202;DHT22;1107;48.654;9.250;2023-02-24T09:46:54;10.50;99.90
2202;DHT22;1107;48.654;9.250;2023-02-24T09:49:29;10.50;99.90
2202;DHT22;1107;48.654;9.250;2023-02-24T09:52:09;10.50;1.00
2202;DHT22;1107;48.654;9.250;2023-02-24T09:54:43;10.50;1.00
2202;DHT22;1107;48.654;9.250;2023-02-24T09:57:45;10.60;1.00
2202;DHT22;1107;48.654;9.250;2023-02-24T10:00:48;10.60;1.00
2202;DHT22;1107;48.654;9.250;2023-02-24T10:03:20;10.30;1.00
2202;DHT22;1107;48.654;9.250;2023-02-24T10:06:13;10.10;1.00
2202;DHT22;1107;48.654;9.250;2023-02-24T10:08:49;10.20;99.90
2202;DHT22;1107;48.654;9.250;2023-02-24T10:11:18;10.10;99.90
2202;DHT22;1107;48.654;9.250;2023-02-24T10:14:01;10.00;99.90
2202;DHT22;1107;48.654;9.250;2023-02-24T10:16:32;10.00;1.00
2202;DHT22;1107;48.654;9.250;2023-02-24T10:19:13;10.00;1.00
2202;DHT22;1107;48.654;9.250;2023-02-24T10:21:49;10.00;96.60
2202;DHT22;1107;48.654;9.250;2023-02-24T10:24:31;10.10;1.00
2202;DHT22;1107;48.654;9.250;2023-02-24T10:27:08;10.10;1.00
2202;DHT22;1107;48.654;9.250;2023-02-24T10:29:50;10.10;99.90
2202;DHT22;1107;48.654;9.250;2023-02-24T10:32:30;10.00;1.00
2202;DHT22;1107;48.654;9.250;2023-02-24T10:35:01;10.20;1.00
2202;DHT22;1107;48.654;9.250;2023-02-24T10:37:28;10.40;99.90
2202;DHT22;1107;48.654;9.250;2023-02-24T10:39:57;10.60;27.30
2202;DHT22;1107;48.654;9.250;2023-02-24T10:42:25;10.70;1.00
2202;DHT22;1107;48.654;9.250;2023-02-24T10:45:09;10.70;1.00
2202;DHT22;1107;48.654;9.250;2023-02-24T10:47:39;10.70;1.00
2202;DHT22;1107;48.654;9.250;2023-02-24T10:50:19;10.50;1.00
2202;DHT22;1107;48.654;9.250;2023-02-24T10:52:48;10.50;1.00
2202;DHT22;1107;48.654;9.250;2023-02-24T10:55:38;10.40;1.00
2202;DHT22;1107;48.654;9.250;2023-02-24T10:58:21;10.50;99.90
2202;DHT22;1107;48.654;9.250;2023-02-24T11:01:07;10.40;99.90
2202;DHT22;1107;48.654;9.250;2023-02-24T11:03:48;10.40;1.00
2202;DHT22;1107;48.654;9.250;2023-02-24T11:06:27;10.30;1.00
2202;DHT22;1107;48.654;9.250;2023-02-24T11:09:18;10.30;1.00
2202;DHT22;1107;48.654;9.250;2023-02-24T11:11:59;10.30;1.00
2202;DHT22;1107;48.654;9.250;2023-02-24T11:14:51;10.20;1.00
2202;DHT22;1107;48.654;9.250;2023-02-24T11:17:45;10.30;99.90
2202;DHT22;1107;48.654;9.250;2023-02-24T11:20:21;10.20;1.00
2202;DHT22;1107;48.654;9.250;2023-02-24T11:22:50;10.20;99.90
2202;DHT22;1107;48.654;9.250;2023-02-24T11:25:22;10.20;99.90
2202;DHT22;1107;48.654;9.250;2023-02-24T11:27:51;10.10;1.00
2202;DHT22;1107;48.654;9.250;2023-02-24T11:30:25;10.00;1.00
2202;DHT22;1107;48.654;9.250;2023-02-24T11:33:17;9.90;1.00
2202;DHT22;1107;48.654;9.250;2023-02-24T11:35:57;9.80;99.90
2202;DHT22;1107;48.654;9.250;2023-02-24T11:38:35;9.60;1.00
2202;DHT22;1107;48.654;9.250;2023-02-24T11:41:11;9.50;1.00
2202;DHT22;1107;48.654;9.250;2023-02-24T11:43:40;9.50;1.00
2202;DHT22;1107;48.654;9.250;2023-02-24T11:46:12;9.30;1.00
2202;DHT22;1107;48.654;9.250;2023-02-24T11:48:44;9.30;1.00
2202;DHT22;1107;48.654;9.250;2023-02-24T11:51:16;9.30;1.00
2202;DHT22;1107;48.654;9.250;2023-02-24T11:53:48;9.20;1.00
2202;DHT22;1107;48.654;9.250;2023-02-24T11:56:20;9.30;1.00
2202;DHT22;1107;48.654;9.250;2023-02-24T11:58:52;9.50;1.00
2202;DHT22;1107;48.654;9.250;2023-02-24T12:01:26;9.70;1.00
2202;DHT22;1107;48.654;9.250;2023-02-24T12:04:04;10.00;99.90
2202;DHT22;1107;48.654;9.250;2023-02-24T12:06:36;10.10;1.00
2202;DHT22;1107;48.654;9.250;2023-02-24T12:09:10;10.20;99.90
2202;DHT22;1107;48.654;9.250;2023-02-24T12:11:44;10.20;1.00
2202;DHT22;1107;48.654;9.250;2023-02-24T12:14:21;10.10;1.00
2202;DHT22;1107;48.654;9.250;2023-02-24T12:16:56;10.00;1.00
2202;DHT22;1107;48.654;9.250;2023-02-24T12:19:32;10.20;1.00
2202;DHT22;1107;48.654;9.250;2023-02-24T12:22:06;10.10;1.00
2202;DHT22;1107;48.654;9.250;2023-02-24T12:24:38;10.00;1.00
2202;DHT22;1107;48.654;9.250;2023-02-24T12:27:13;9.90;50.50
2202;DHT22;1107;48.654;9.250;2023-02-24T12:32:44;10.10;99.90
2202;DHT22;1107;48.654;9.250;2023-02-24T12:35:21;10.30;1.00
2202;DHT22;1107;48.654;9.250;2023-02-24T12:37:59;10.40;99.90
2202;DHT22;1107;48.654;9.250;2023-02-24T12:40:38;10.70;99.90
2202;DHT22;1107;48.654;9.250;2023-02-24T12:43:17;11.10;1.00
2202;DHT22;1107;48.654;9.250;2023-02-24T12:45:50;10.90;99.90
2202;DHT22;1107;48.654;9.250;2023-02-24T12:48:31;10.70;1.00
2202;DHT22;1107;48.654;9.250;2023-02-24T12:51:07;10.60;99.90
2202;DHT22;1107;48.654;9.250;2023-02-24T12:53:44;10.50;1.00
2202;DHT22;1107;48.654;9.250;2023-02-24T12:56:16;10.40;1.00
2202;DHT22;1107;48.654;9.250;2023-02-24T12:58:46;10.40;1.00
2202;DHT22;1107;48.654;9.250;2023-02-24T13:01:22;10.30;99.90
2202;DHT22;1107;48.654;9.250;2023-02-24T13:04:02;10.40;1.00
2202;DHT22;1107;48.654;9.250;2023-02-24T13:06:47;10.40;99.90
2202;DHT22;1107;48.654;9.250;2023-02-24T13:09:23;10.40;99.90
2202;DHT22;1107;48.654;9.250;2023-02-24T13:11:57;10.50;99.90
2202;DHT22;1107;48.654;9.250;2023-02-24T13:14:28;10.50;11.50
2202;DHT22;1107;48.654;9.250;2023-02-24T13:17:16;10.70;99.90
2202;DHT22;1107;48.654;9.250;2023-02-24T13:19:45;10.70;5.90
2202;DHT22;1107;48.654;9.250;2023-02-24T13:22:38;10.80;1.00
2202;DHT22;1107;48.654;9.250;2023-02-24T13:25:17;10.90;1.00
2202;DHT22;1107;48.654;9.250;2023-02-24T13:27:55;11.20;1.00
2202;DHT22;1107;48.654;9.250;2023-02-24T13:30:34;11.50;1.00
2202;DHT22;1107;48.654;9.250;2023-02-24T13:33:20;11.50;1.00
2202;DHT22;1107;48.654;9.250;2023-02-24T13:35:51;11.30;1.00
2202;DHT22;1107;48.654;9.250;2023-02-24T13:38:32;11.20;1.00
2202;DHT22;1107;48.654;9.250;2023-02-24T13:41:06;11.00;99.90
2202;DHT22;1107;48.654;9.250;2023-02-24T13:43:34;10.90;1.00
2202;DHT22;1107;48.654;9.250;2023-02-24T13:46:03;10.90;1.00
2202;DHT22;1107;48.654;9.250;2023-02-24T13:48:59;10.90;99.90
2202;DHT22;1107;48.654;9.250;2023-02-24T13:51:53;10.80;1.00
2202;DHT22;1107;48.654;9.250;2023-02-24T13:57:50;10.80;1.00
2202;DHT22;1107;48.654;9.250;2023-02-24T14:00:27;10.80;1.00
2202;DHT22;1107;48.654;9.250;2023-02-24T14:02:57;10.80;1.00
2202;DHT22;1107;48.654;9.250;2023-02-24T14:05:31;10.70;1.00
2202;DHT22;1107;48.654;9.250;2023-02-24T14:08:00;10.70;1.00
2202;DHT22;1107;48.654;9.250;2023-02-24T14:10:29;10.70;1.00
2202;DHT22;1107;48.654;9.250;2023-02-24T14:13:02;10.70;99.90
2202;DHT22;1107;48.654;9.250;2023-02-24T14:15:31;10.60;1.00
2202;DHT22;1107;48.654;9.250;2023-02-24T14:18:00;10.60;99.90
2202;DHT22;1107;48.654;9.250;2023-02-24T14:20:30;10.60;1.00
2202;DHT22;1107;48.654;9.250;2023-02-24T14:22:59;10.60;10.50
2202;DHT22;1107;48.654;9.250;2023-02-24T14:25:27;10.50;99.90
2202;DHT22;1107;48.654;9.250;2023-02-24T14:27:56;10.70;36.20
2202;DHT22;1107;48.654;9.250;2023-02-24T14:30:27;10.70;99.90
2202;DHT22;1107;48.654;9.250;2023-02-24T14:32:57;10.80;1.00
2202;DHT22;1107;48.654;9.250;2023-02-24T14:35:30;10.80;1.00
2202;DHT22;1107;48.654;9.250;2023-02-24T14:37:58;10.80;99.90
2202;DHT22;1107;48.654;9.250;2023-02-24T14:40:26;10.80;99.90
2202;DHT22;1107;48.654;9.250;2023-02-24T14:42:54;10.80;1.00
2202;DHT22;1107;48.654;9.250;2023-02-24T14:45:23;10.90;1.00
2202;DHT22;1107;48.654;9.250;2023-02-24T14:47:53;10.90;1.00
2202;DHT22;1107;48.654;9.250;2023-02-24T14:50:25;10.90;1.00
2202;DHT22;1107;48.654;9.250;2023-02-24T14:52:56;10.90;99.90
2202;DHT22;1107;48.654;9.250;2023-02-24T14:55:26;10.90;23.90
2202;DHT22;1107;48.654;9.250;2023-02-24T14:57:59;10.80;99.90
2202;DHT22;1107;48.654;9.250;2023-02-24T15:00:31;10.80;99.90
2202;DHT22;1107;48.654;9.250;2023-02-24T15:03:08;10.80;1.00
2202;DHT22;1107;48.654;9.250;2023-02-24T15:05:39;10.80;1.00
2202;DHT22;1107;48.654;9.250;2023-02-24T15:08:19;10.90;1.00
2202;DHT22;1107;48.654;9.250;2023-02-24T15:10:48;10.90;99.90
2202;DHT22;1107;48.654;9.250;2023-02-24T15:13:25;10.90;1.00
2202;DHT22;1107;48.654;9.250;2023-02-24T15:15:54;10.90;1.00
2202;DHT22;1107;48.654;9.250;2023-02-24T15:18:25;11.00;1.00
2202;DHT22;1107;48.654;9.250;2023-02-24T15:21:00;10.90;92.80
2202;DHT22;1107;48.654;9.250;2023-02-24T15:23:30;10.80;1.00
2202;DHT22;1107;48.654;9.250;2023-02-24T15:25:58;10.80;99.90
2202;DHT22;1107;48.654;9.250;2023-02-24T15:28:27;10.70;99.90
2202;DHT22;1107;48.654;9.250;2023-02-24T15:31:02;10.70;1.00
2202;DHT22;1107;48.654;9.250;2023-02-24T15:33:34;10.60;1.00
2202;DHT22;1107;48.654;9.250;2023-02-24T15:36:07;10.50;1.00
2202;DHT22;1107;48.654;9.250;2023-02-24T15:38:38;10.50;1.00
2202;DHT22;1107;48.654;9.250;2023-02-24T15:41:07;10.40;1.00
2202;DHT22;1107;48.654;9.250;2023-02-24T15:43:35;10.40;1.00
2202;DHT22;1107;48.654;9.250;2023-02-24T15:46:22;10.40;1.00
2202;DHT22;1107;48.654;9.250;2023-02-24T15:48:51;10.30;1.00
2202;DHT22;1107;48.654;9.250;2023-02-24T15:51:31;10.30;1.00
2202;DHT22;1107;48.654;9.250;2023-02-24T15:54:00;10.30;99.90
2202;DHT22;1107;48.654;9.250;2023-02-24T15:56:31;10.30;1.00
2202;DHT22;1107;48.654;9.250;2023-02-24T15:58:59;10.30;99.90
2202;DHT22;1107;48.654;9.250;2023-02-24T16:01:27;10.20;80.40
2202;DHT22;1107;48.654;9.250;2023-02-24T16:03:56;10.20;1.00
2202;DHT22;1107;48.654;9.250;2023-02-24T16:06:24;10.20;99.90
2202;DHT22;1107;48.654;9.250;2023-02-24T16:08:53;10.20;1.00
2202;DHT22;1107;48.654;9.250;2023-02-24T16:11:24;10.20;1.00
2202;DHT22;1107;48.654;9.250;2023-02-24T16:13:54;10.30;1.00
2202;DHT22;1107;48.654;9.250;2023-02-24T16:16:22;10.30;99.90
2202;DHT22;1107;48.654;9.250;2023-02-24T16:18:50;10.30;98.70
2202;DHT22;1107;48.654;9.250;2023-02-24T16:21:18;10.30;99.90
2202;DHT22;1107;48.654;9.250;2023-02-24T16:23:45;10.20;1.00
2202;DHT22;1107;48.654;9.250;2023-02-24T16:26:15;10.20;1.00
2202;DHT22;1107;48.654;9.250;2023-02-24T16:28:43;10.10;1.00
2202;DHT22;1107;48.654;9.250;2023-02-24T16:31:10;10.00;1.00
2202;DHT22;1107;48.654;9.250;2023-02-24T16:33:37;10.00;1.00
2202;DHT22;1107;48.654;9.250;2023-02-24T16:36:09;9.90;1.00
2202;DHT22;1107;48.654;9.250;2023-02-24T16:38:38;9.80;1.00
2202;DHT22;1107;48.654;9.250;2023-02-24T16:41:05;9.70;1.00
2202;DHT22;1107;48.654;9.250;2023-02-24T16:43:32;9.70;1.00
2202;DHT22;1107;48.654;9.250;2023-02-24T16:46:03;9.60;1.00
2202;DHT22;1107;48.654;9.250;2023-02-24T16:48:32;9.50;1.00
2202;DHT22;1107;48.654;9.250;2023-02-24T16:51:02;9.50;1.00
2202;DHT22;1107;48.654;9.250;2023-02-24T16:53:29;9.50;1.00
2202;DHT22;1107;48.654;9.250;2023-02-24T16:55:58;9.40;1.00
2202;DHT22;1107;48.654;9.250;2023-02-24T16:58:25;9.40;1.00
2202;DHT22;1107;48.654;9.250;2023-02-24T17:00:55;9.40;1.00
2202;DHT22;1107;48.654;9.250;2023-02-24T17:03:25;9.30;1.00